createdAt,value
2023-05-19T00:00:51.065Z,0.00
2023-05-19T00:01:50.194Z,0.00
2023-05-19T00:02:50.303Z,0.00
2023-05-19T00:03:50.198Z,0.00
2023-05-19T00:04:50.209Z,0.00
2023-05-19T00:05:50.233Z,0.00
2023-05-19T00:06:50.190Z,0.00
2023-05-19T00:07:50.190Z,0.00
2023-05-19T00:08:50.186Z,0.00
2023-05-19T00:09:50.191Z,0.00
2023-05-19T00:10:50.209Z,0.00
2023-05-19T00:11:50.218Z,0.00
2023-05-19T00:12:50.927Z,0.00
2023-05-19T00:13:50.187Z,0.00
2023-05-19T00:14:50.187Z,0.00
2023-05-19T00:15:50.239Z,0.00
2023-05-19T00:16:50.201Z,0.00
2023-05-19T00:17:50.280Z,0.00
2023-05-19T00:18:50.207Z,0.00
2023-05-19T00:19:50.201Z,0.00
2023-05-19T00:20:50.248Z,0.00
2023-05-19T00:21:50.184Z,0.00
2023-05-19T00:22:50.212Z,0.00
2023-05-19T00:23:50.257Z,0.00
2023-05-19T00:24:50.250Z,0.00
2023-05-19T00:25:50.236Z,0.00
2023-05-19T00:26:50.174Z,0.00
2023-05-19T00:27:50.199Z,0.00
2023-05-19T00:28:50.213Z,0.00
2023-05-19T00:29:50.179Z,0.00
2023-05-19T00:30:50.177Z,0.00
2023-05-19T00:31:50.207Z,0.00
2023-05-19T00:32:50.226Z,0.00
2023-05-19T00:33:50.198Z,0.00
2023-05-19T00:34:50.225Z,0.00
2023-05-19T00:35:50.178Z,0.00
2023-05-19T00:36:50.204Z,0.00
2023-05-19T00:37:50.180Z,0.00
2023-05-19T00:38:50.191Z,0.00
2023-05-19T00:39:50.174Z,0.00
2023-05-19T00:40:50.167Z,0.00
2023-05-19T00:41:50.185Z,0.00
2023-05-19T00:42:50.167Z,0.00
2023-05-19T00:43:50.174Z,0.00
2023-05-19T00:44:50.171Z,0.00
2023-05-19T00:45:50.173Z,0.00
2023-05-19T00:46:50.257Z,0.00
2023-05-19T00:47:50.197Z,0.00
2023-05-19T00:48:50.163Z,0.00
2023-05-19T00:49:50.169Z,0.00
2023-05-19T00:50:50.171Z,0.00
2023-05-19T00:51:50.168Z,0.00
2023-05-19T00:52:50.187Z,0.00
2023-05-19T00:53:50.167Z,0.00
2023-05-19T00:54:50.168Z,0.00
2023-05-19T00:55:50.167Z,0.00
2023-05-19T00:56:50.162Z,0.00
2023-05-19T00:57:50.163Z,0.00
2023-05-19T00:58:50.161Z,0.00
2023-05-19T00:59:50.166Z,0.00
2023-05-19T01:00:50.227Z,0.00
2023-05-19T01:01:50.165Z,0.00
2023-05-19T01:02:50.214Z,0.00
2023-05-19T01:03:50.222Z,0.00
2023-05-19T01:04:50.167Z,0.00
2023-05-19T01:05:50.173Z,0.00
2023-05-19T01:06:50.158Z,0.00
2023-05-19T01:07:50.159Z,0.00
2023-05-19T01:08:50.176Z,0.00
2023-05-19T01:09:50.156Z,0.00
2023-05-19T01:10:50.152Z,0.00
2023-05-19T01:11:50.157Z,0.00
2023-05-19T01:12:50.165Z,0.00
2023-05-19T01:13:50.157Z,0.00
2023-05-19T01:14:50.167Z,0.00
2023-05-19T01:15:50.161Z,0.00
2023-05-19T01:16:50.296Z,0.00
2023-05-19T01:17:50.196Z,0.00
2023-05-19T01:18:50.207Z,0.00
2023-05-19T01:19:50.159Z,0.00
2023-05-19T01:20:50.160Z,0.00
2023-05-19T01:21:50.158Z,0.00
2023-05-19T01:22:50.152Z,0.00
2023-05-19T01:23:50.149Z,0.00
2023-05-19T01:24:50.174Z,0.00
2023-05-19T01:25:50.148Z,0.00
2023-05-19T01:26:50.143Z,0.00
2023-05-19T01:27:50.146Z,0.00
2023-05-19T01:28:50.148Z,0.00
2023-05-19T01:29:50.150Z,0.00
2023-05-19T01:30:50.161Z,0.00
2023-05-19T01:31:50.175Z,0.00
2023-05-19T01:32:50.187Z,0.00
2023-05-19T01:33:50.144Z,0.00
2023-05-19T01:34:50.138Z,0.00
2023-05-19T01:35:50.141Z,0.00
2023-05-19T01:36:50.133Z,0.00
2023-05-19T01:37:50.139Z,0.00
2023-05-19T01:38:50.135Z,0.00
2023-05-19T01:39:50.143Z,0.00
2023-05-19T01:40:50.155Z,0.00
2023-05-19T01:41:50.138Z,0.00
2023-05-19T01:42:50.165Z,0.00
2023-05-19T01:43:50.136Z,0.00
2023-05-19T01:44:50.141Z,0.00
2023-05-19T01:45:50.153Z,0.00
2023-05-19T01:46:50.144Z,0.00
2023-05-19T01:47:50.177Z,0.00
2023-05-19T01:48:50.139Z,0.00
2023-05-19T01:49:50.130Z,0.00
2023-05-19T01:50:50.132Z,0.00
2023-05-19T01:51:50.133Z,0.00
2023-05-19T01:52:50.134Z,0.00
2023-05-19T01:53:50.128Z,0.00
2023-05-19T01:54:50.149Z,0.00
2023-05-19T01:55:50.128Z,0.00
2023-05-19T01:56:50.147Z,0.00
2023-05-19T01:57:50.132Z,0.00
2023-05-19T01:58:50.138Z,0.00
2023-05-19T01:59:50.126Z,0.00
2023-05-19T02:00:50.209Z,0.00
2023-05-19T02:01:50.126Z,0.00
2023-05-19T02:02:50.194Z,0.00
2023-05-19T02:03:50.123Z,0.00
2023-05-19T02:04:50.193Z,0.00
2023-05-19T02:05:50.116Z,0.00
2023-05-19T02:06:50.127Z,0.00
2023-05-19T02:07:50.127Z,0.00
2023-05-19T02:08:50.118Z,0.00
2023-05-19T02:09:50.117Z,0.00
2023-05-19T02:10:50.115Z,0.00
2023-05-19T02:11:50.117Z,0.00
2023-05-19T02:12:50.139Z,0.00
2023-05-19T02:13:50.117Z,0.00
2023-05-19T02:14:50.112Z,0.00
2023-05-19T02:15:50.125Z,0.00
2023-05-19T02:16:50.105Z,0.00
2023-05-19T02:17:50.217Z,0.00
2023-05-19T02:18:50.142Z,0.00
2023-05-19T02:19:50.103Z,0.00
2023-05-19T02:20:50.108Z,0.00
2023-05-19T02:21:50.108Z,0.00
2023-05-19T02:22:50.096Z,0.00
2023-05-19T02:23:50.101Z,0.00
2023-05-19T02:24:50.097Z,0.00
2023-05-19T02:25:50.095Z,0.00
2023-05-19T02:26:50.107Z,0.00
2023-05-19T02:27:50.098Z,0.00
2023-05-19T02:28:50.185Z,0.00
2023-05-19T02:29:50.092Z,4.00
2023-05-19T02:30:50.095Z,4.00
2023-05-19T02:31:50.183Z,4.00
2023-05-19T02:32:50.121Z,0.00
2023-05-19T02:33:50.095Z,0.00
2023-05-19T02:34:50.088Z,0.00
2023-05-19T02:35:50.091Z,0.00
2023-05-19T02:36:50.130Z,4.00
2023-05-19T02:37:50.085Z,4.00
2023-05-19T02:38:50.081Z,4.00
2023-05-19T02:39:50.078Z,4.00
2023-05-19T02:40:50.078Z,4.00
2023-05-19T02:41:50.088Z,4.00
2023-05-19T02:42:50.078Z,8.00
2023-05-19T02:43:50.078Z,4.00
2023-05-19T02:44:50.094Z,8.00
2023-05-19T02:45:50.092Z,8.00
2023-05-19T02:46:50.121Z,12.00
2023-05-19T02:47:50.107Z,12.00
2023-05-19T02:48:50.068Z,12.00
2023-05-19T02:49:50.087Z,16.00
2023-05-19T02:50:50.071Z,16.00
2023-05-19T02:51:50.073Z,16.00
2023-05-19T02:52:50.081Z,20.00
2023-05-19T02:53:50.066Z,20.00
2023-05-19T02:54:50.062Z,28.00
2023-05-19T02:55:50.063Z,28.00
2023-05-19T02:56:50.061Z,32.00
2023-05-19T02:57:50.068Z,36.00
2023-05-19T02:58:50.067Z,40.00
2023-05-19T02:59:50.069Z,40.00
2023-05-19T03:00:50.084Z,44.00
2023-05-19T03:01:50.148Z,52.00
2023-05-19T03:02:50.155Z,52.00
2023-05-19T03:03:50.171Z,56.00
2023-05-19T03:04:50.064Z,64.00
2023-05-19T03:05:50.057Z,68.00
2023-05-19T03:06:50.064Z,72.00
2023-05-19T03:07:50.059Z,76.00
2023-05-19T03:08:50.054Z,84.00
2023-05-19T03:09:50.046Z,88.00
2023-05-19T03:10:50.047Z,96.00
2023-05-19T03:11:50.053Z,100.00
2023-05-19T03:12:50.047Z,108.00
2023-05-19T03:13:50.057Z,116.00
2023-05-19T03:14:50.045Z,128.00
2023-05-19T03:15:50.101Z,136.00
2023-05-19T03:16:50.152Z,144.00
2023-05-19T03:17:50.145Z,156.00
2023-05-19T03:18:50.059Z,164.00
2023-05-19T03:19:50.048Z,180.00
2023-05-19T03:20:50.037Z,192.00
2023-05-19T03:21:50.045Z,204.00
2023-05-19T03:22:50.043Z,216.00
2023-05-19T03:23:50.038Z,228.00
2023-05-19T03:24:50.038Z,236.00
2023-05-19T03:25:50.039Z,252.00
2023-05-19T03:26:50.041Z,264.00
2023-05-19T03:27:50.053Z,280.00
2023-05-19T03:28:50.038Z,296.00
2023-05-19T03:29:50.041Z,316.00
2023-05-19T03:30:50.051Z,336.00
2023-05-19T03:31:50.037Z,352.00
2023-05-19T03:32:50.153Z,372.00
2023-05-19T03:33:50.031Z,388.00
2023-05-19T03:34:50.027Z,400.00
2023-05-19T03:35:50.032Z,412.00
2023-05-19T03:36:50.019Z,424.00
2023-05-19T03:37:50.049Z,444.00
2023-05-19T03:38:50.027Z,456.00
2023-05-19T03:39:50.029Z,468.00
2023-05-19T03:40:50.046Z,484.00
2023-05-19T03:41:50.025Z,500.00
2023-05-19T03:42:50.028Z,516.00
2023-05-19T03:43:50.028Z,536.00
2023-05-19T03:44:50.046Z,552.00
2023-05-19T03:45:50.091Z,572.00
2023-05-19T03:46:50.025Z,592.00
2023-05-19T03:47:50.127Z,616.00
2023-05-19T03:48:50.054Z,632.00
2023-05-19T03:49:50.011Z,652.00
2023-05-19T03:50:50.016Z,676.00
2023-05-19T03:51:50.009Z,692.00
2023-05-19T03:52:50.022Z,712.00
2023-05-19T03:53:50.025Z,728.00
2023-05-19T03:54:50.010Z,744.00
2023-05-19T03:55:50.009Z,756.00
2023-05-19T03:56:50.027Z,776.00
2023-05-19T03:57:50.008Z,792.00
2023-05-19T03:58:50.006Z,804.00
2023-05-19T03:59:50.012Z,816.00
2023-05-19T04:00:50.004Z,824.00
2023-05-19T04:01:50.001Z,840.00
2023-05-19T04:02:50.102Z,860.00
2023-05-19T04:03:50.007Z,880.00
2023-05-19T04:04:50.154Z,896.00
2023-05-19T04:05:50.006Z,912.00
2023-05-19T04:06:50.001Z,936.00
2023-05-19T04:07:50.006Z,948.00
2023-05-19T04:08:49.997Z,952.00
2023-05-19T04:09:49.994Z,960.00
2023-05-19T04:10:49.992Z,972.00
2023-05-19T04:11:49.994Z,976.00
2023-05-19T04:12:49.996Z,984.00
2023-05-19T04:13:49.995Z,988.00
2023-05-19T04:14:49.988Z,996.00
2023-05-19T04:15:50.005Z,1000.00
2023-05-19T04:16:50.009Z,1012.00
2023-05-19T04:17:50.029Z,1024.00
2023-05-19T04:18:50.050Z,1036.00
2023-05-19T04:19:49.988Z,1052.00
2023-05-19T04:20:50.009Z,1064.00
2023-05-19T04:21:49.986Z,1072.00
2023-05-19T04:22:49.980Z,1076.00
2023-05-19T04:23:50.000Z,1076.00
2023-05-19T04:24:49.976Z,1080.00
2023-05-19T04:25:49.977Z,1084.00
2023-05-19T04:26:49.974Z,1088.00
2023-05-19T04:27:49.980Z,1096.00
2023-05-19T04:28:49.987Z,1108.00
2023-05-19T04:29:50.035Z,1116.00
2023-05-19T04:30:49.992Z,1132.00
2023-05-19T04:31:49.966Z,1148.00
2023-05-19T04:32:50.024Z,1172.00
2023-05-19T04:33:49.966Z,1192.00
2023-05-19T04:34:49.972Z,1212.00
2023-05-19T04:35:49.964Z,1228.00
2023-05-19T04:36:53.111Z,1252.00
2023-05-19T04:37:49.986Z,1268.00
2023-05-19T04:38:49.967Z,1292.00
2023-05-19T04:39:49.964Z,1312.00
2023-05-19T04:40:49.962Z,1336.00
2023-05-19T04:41:49.959Z,1360.00
2023-05-19T04:42:49.963Z,1384.00
2023-05-19T04:43:49.963Z,1408.00
2023-05-19T04:44:49.965Z,1440.00
2023-05-19T04:45:49.955Z,1472.00
2023-05-19T04:46:50.086Z,1492.00
2023-05-19T04:47:49.985Z,1524.00
2023-05-19T04:48:49.961Z,1552.00
2023-05-19T04:49:49.952Z,1592.00
2023-05-19T04:50:49.959Z,1640.00
2023-05-19T04:51:49.956Z,1696.00
2023-05-19T04:52:49.973Z,1752.00
2023-05-19T04:53:49.950Z,1804.00
2023-05-19T04:54:49.953Z,1848.00
2023-05-19T04:55:49.948Z,1892.00
2023-05-19T04:56:49.952Z,1928.00
2023-05-19T04:57:49.952Z,1956.00
2023-05-19T04:58:49.954Z,1988.00
2023-05-19T04:59:49.944Z,2012.00
2023-05-19T05:00:49.942Z,2032.00
2023-05-19T05:01:49.973Z,2052.00
2023-05-19T05:02:50.074Z,2072.00
2023-05-19T05:03:49.962Z,2084.00
2023-05-19T05:04:49.941Z,2100.00
2023-05-19T05:05:49.938Z,2116.00
2023-05-19T05:06:49.942Z,2132.00
2023-05-19T05:07:49.935Z,2160.00
2023-05-19T05:08:49.970Z,2216.00
2023-05-19T05:09:49.929Z,2288.00
2023-05-19T05:10:49.932Z,2372.00
2023-05-19T05:11:49.932Z,2436.00
2023-05-19T05:12:49.947Z,2488.00
2023-05-19T05:13:49.926Z,2524.00
2023-05-19T05:14:49.944Z,2552.00
2023-05-19T05:15:49.932Z,2632.00
2023-05-19T05:16:50.005Z,2744.00
2023-05-19T05:17:49.974Z,2836.00
2023-05-19T05:18:49.936Z,2904.00
2023-05-19T05:19:49.926Z,2964.00
2023-05-19T05:20:49.923Z,3076.00
2023-05-19T05:21:49.925Z,3224.00
2023-05-19T05:22:49.925Z,3332.00
2023-05-19T05:23:49.925Z,3408.00
2023-05-19T05:24:49.949Z,3404.00
2023-05-19T05:25:49.912Z,3344.00
2023-05-19T05:26:49.941Z,3332.00
2023-05-19T05:27:49.916Z,3364.00
2023-05-19T05:28:49.917Z,3364.00
2023-05-19T05:29:51.576Z,3312.00
2023-05-19T05:30:49.919Z,3308.00
2023-05-19T05:31:49.915Z,3292.00
2023-05-19T05:32:50.005Z,3220.00
2023-05-19T05:33:49.928Z,3196.00
2023-05-19T05:34:49.915Z,3184.00
2023-05-19T05:35:49.913Z,3208.00
2023-05-19T05:36:49.916Z,3204.00
2023-05-19T05:37:49.912Z,3176.00
2023-05-19T05:38:49.915Z,3180.00
2023-05-19T05:39:49.910Z,3200.00
2023-05-19T05:40:49.935Z,3268.00
2023-05-19T05:41:49.921Z,3376.00
2023-05-19T05:42:49.912Z,3516.00
2023-05-19T05:43:49.911Z,3644.00
2023-05-19T05:44:49.912Z,3748.00
2023-05-19T05:45:49.929Z,3816.00
2023-05-19T05:46:49.916Z,3884.00
2023-05-19T05:47:49.936Z,3900.00
2023-05-19T05:48:49.913Z,3892.00
2023-05-19T05:49:52.127Z,3744.00
2023-05-19T05:50:49.916Z,3664.00
2023-05-19T05:52:01.910Z,3668.00
2023-05-19T05:52:49.908Z,3672.00
2023-05-19T05:53:49.911Z,3732.00
2023-05-19T05:54:49.919Z,3720.00
2023-05-19T05:55:49.906Z,3648.00
2023-05-19T05:56:49.935Z,3464.00
2023-05-19T05:57:49.908Z,3328.00
2023-05-19T05:58:49.911Z,3204.00
2023-05-19T05:59:49.908Z,3120.00
2023-05-19T06:00:49.910Z,3064.00
2023-05-19T06:01:49.916Z,3016.00
2023-05-19T06:02:49.996Z,2984.00
2023-05-19T06:03:49.956Z,2944.00
2023-05-19T06:04:49.910Z,2920.00
2023-05-19T06:05:49.972Z,2908.00
2023-05-19T06:06:49.923Z,2900.00
2023-05-19T06:07:49.913Z,2884.00
2023-05-19T06:08:50.240Z,2880.00
2023-05-19T06:09:49.927Z,2876.00
2023-05-19T06:10:49.905Z,2884.00
2023-05-19T06:11:49.908Z,2896.00
2023-05-19T06:12:50.074Z,2916.00
2023-05-19T06:13:50.227Z,2932.00
2023-05-19T06:14:50.272Z,2920.00
2023-05-19T06:15:49.917Z,2976.00
2023-05-19T06:16:49.912Z,3008.00
2023-05-19T06:17:49.921Z,3056.00
2023-05-19T06:18:49.928Z,3096.00
2023-05-19T06:19:49.906Z,3172.00
2023-05-19T06:20:49.907Z,3280.00
2023-05-19T06:21:49.914Z,3372.00
2023-05-19T06:22:49.911Z,3480.00
2023-05-19T06:23:49.906Z,3600.00
2023-05-19T06:24:49.915Z,3744.00
2023-05-19T06:25:49.918Z,3900.00
2023-05-19T06:26:49.918Z,4032.00
2023-05-19T06:27:49.908Z,4124.00
2023-05-19T06:28:50.070Z,4204.00
2023-05-19T06:29:49.913Z,4256.00
2023-05-19T06:30:49.918Z,4284.00
2023-05-19T06:31:50.059Z,4252.00
2023-05-19T06:32:50.005Z,4328.00
2023-05-19T06:33:49.911Z,4492.00
2023-05-19T06:34:49.908Z,4560.00
2023-05-19T06:35:49.910Z,4620.00
2023-05-19T06:36:49.915Z,4732.00
2023-05-19T06:37:49.909Z,4844.00
2023-05-19T06:38:49.908Z,4956.00
2023-05-19T06:39:49.904Z,5036.00
2023-05-19T06:40:49.906Z,5040.00
2023-05-19T06:41:49.926Z,5176.00
2023-05-19T06:42:49.919Z,5200.00
2023-05-19T06:43:49.910Z,5200.00
2023-05-19T06:44:49.931Z,5280.00
2023-05-19T06:45:49.902Z,5308.00
2023-05-19T06:46:49.974Z,5328.00
2023-05-19T06:47:49.956Z,5168.00
2023-05-19T06:48:49.932Z,4984.00
2023-05-19T06:49:49.909Z,4872.00
2023-05-19T06:50:49.920Z,4820.00
2023-05-19T06:51:49.908Z,4804.00
2023-05-19T06:52:49.915Z,4856.00
2023-05-19T06:53:49.904Z,4876.00
2023-05-19T06:54:49.955Z,4932.00
2023-05-19T06:55:58.710Z,4984.00
2023-05-19T06:56:49.974Z,5084.00
2023-05-19T06:57:49.940Z,5208.00
2023-05-19T06:59:50.016Z,5812.00
2023-05-19T07:00:49.983Z,6188.00
2023-05-19T07:01:50.033Z,6380.00
2023-05-19T07:02:50.068Z,6372.00
2023-05-19T07:03:50.328Z,6292.00
2023-05-19T07:04:49.942Z,6228.00
2023-05-19T07:05:49.945Z,6200.00
2023-05-19T07:06:49.955Z,6080.00
2023-05-19T07:07:49.966Z,6084.00
2023-05-19T07:08:50.013Z,6256.00
2023-05-19T07:09:49.968Z,6528.00
2023-05-19T07:10:49.982Z,6652.00
2023-05-19T07:11:49.972Z,6636.00
2023-05-19T07:12:49.966Z,6444.00
2023-05-19T07:13:50.013Z,6124.00
2023-05-19T07:14:49.961Z,5880.00
2023-05-19T07:15:49.969Z,5676.00
2023-05-19T07:16:50.063Z,5448.00
2023-05-19T07:17:50.009Z,5268.00
2023-05-19T07:18:49.986Z,5152.00
2023-05-19T07:19:49.964Z,5104.00
2023-05-19T07:20:49.925Z,5100.00
2023-05-19T07:21:49.927Z,5128.00
2023-05-19T07:22:49.926Z,5152.00
2023-05-19T07:23:49.933Z,5144.00
2023-05-19T07:24:49.924Z,5108.00
2023-05-19T07:25:49.932Z,5072.00
2023-05-19T07:26:49.923Z,5024.00
2023-05-19T07:27:49.940Z,4920.00
2023-05-19T07:28:49.950Z,4800.00
2023-05-19T07:29:49.937Z,4664.00
2023-05-19T07:30:49.967Z,4488.00
2023-05-19T07:31:49.986Z,4424.00
2023-05-19T07:32:50.006Z,4452.00
2023-05-19T07:33:50.342Z,4436.00
2023-05-19T07:34:49.928Z,4388.00
2023-05-19T07:35:49.953Z,4436.00
2023-05-19T07:36:50.002Z,4444.00
2023-05-19T07:37:49.941Z,4544.00
2023-05-19T07:38:49.948Z,4692.00
2023-05-19T07:39:49.935Z,4856.00
2023-05-19T07:40:49.929Z,4944.00
2023-05-19T07:41:49.980Z,5148.00
2023-05-19T07:42:49.932Z,5456.00
2023-05-19T07:43:49.938Z,5868.00
2023-05-19T07:44:49.936Z,6292.00
2023-05-19T07:45:49.981Z,6644.00
2023-05-19T07:46:49.946Z,6872.00
2023-05-19T07:47:49.972Z,7288.00
2023-05-19T07:48:49.986Z,9120.00
2023-05-19T07:49:51.904Z,21632.00
2023-05-19T07:50:49.936Z,36288.00
2023-05-19T07:51:49.944Z,52160.00
2023-05-19T07:52:49.942Z,65984.00
2023-05-19T07:53:49.948Z,66528.00
2023-05-19T07:54:49.951Z,62816.00
2023-05-19T07:55:49.948Z,65216.00
2023-05-19T07:56:49.959Z,69216.00
2023-05-19T07:57:49.954Z,67328.00
2023-05-19T07:58:49.946Z,71040.00
2023-05-19T07:59:49.968Z,73344.00
2023-05-19T08:00:49.955Z,71680.00
2023-05-19T08:01:49.968Z,75648.00
2023-05-19T08:02:50.065Z,86816.00
2023-05-19T08:03:50.176Z,90528.00
2023-05-19T08:04:50.184Z,84128.00
2023-05-19T08:05:49.969Z,79968.00
2023-05-19T08:06:49.978Z,81952.00
2023-05-19T08:07:49.983Z,82400.00
2023-05-19T08:08:49.992Z,77632.00
2023-05-19T08:09:49.981Z,74144.00
2023-05-19T08:10:49.996Z,76064.00
2023-05-19T08:11:50.030Z,78848.00
2023-05-19T08:12:50.003Z,73632.00
2023-05-19T08:13:50.008Z,67744.00
2023-05-19T08:14:50.010Z,68704.00
2023-05-19T08:15:50.138Z,69792.00
2023-05-19T08:16:50.030Z,66976.00
2023-05-19T08:17:50.078Z,64160.00
2023-05-19T08:18:50.052Z,67680.00
2023-05-19T08:19:50.040Z,68928.00
2023-05-19T08:20:50.105Z,62400.00
2023-05-19T08:21:50.073Z,63424.00
2023-05-19T08:22:50.080Z,69824.00
2023-05-19T08:23:50.079Z,71040.00
2023-05-19T08:24:50.085Z,68000.00
2023-05-19T08:25:50.095Z,60768.00
2023-05-19T08:26:50.100Z,68832.00
2023-05-19T08:27:50.103Z,79872.00
2023-05-19T08:28:50.184Z,78720.00
2023-05-19T08:29:50.124Z,70208.00
2023-05-19T08:30:50.133Z,70208.00
2023-05-19T08:31:50.163Z,82816.00
2023-05-19T08:32:50.170Z,83488.00
2023-05-19T08:33:50.169Z,74208.00
2023-05-19T08:34:50.179Z,75872.00
2023-05-19T08:35:50.187Z,88160.00
2023-05-19T08:36:50.243Z,87360.00
2023-05-19T08:37:50.214Z,73664.00
2023-05-19T08:38:50.241Z,71072.00
2023-05-19T08:39:50.237Z,82272.00
2023-05-19T08:40:50.281Z,89056.00
2023-05-19T08:41:50.259Z,76320.00
2023-05-19T08:42:50.287Z,66592.00
2023-05-19T08:43:50.294Z,67936.00
2023-05-19T08:44:50.305Z,80256.00
2023-05-19T08:45:50.313Z,90464.00
2023-05-19T08:46:50.376Z,88064.00
2023-05-19T08:47:50.417Z,83264.00
2023-05-19T08:48:50.354Z,81952.00
2023-05-19T08:49:50.365Z,90400.00
2023-05-19T08:50:50.383Z,92928.00
2023-05-19T08:51:50.399Z,88640.00
2023-05-19T08:52:52.786Z,79328.00
2023-05-19T08:53:50.442Z,85120.00
2023-05-19T08:54:50.454Z,86176.00
2023-05-19T08:55:50.474Z,78208.00
2023-05-19T08:56:50.466Z,39936.00
2023-05-19T08:57:50.486Z,90272.00
2023-05-19T08:58:50.510Z,44320.00
2023-05-19T08:59:50.535Z,59232.00
2023-05-19T09:00:50.577Z,79136.00
2023-05-19T09:01:50.545Z,72832.00
2023-05-19T09:03:00.155Z,82560.00
2023-05-19T09:03:50.818Z,41344.00
2023-05-19T09:04:50.674Z,94048.00
2023-05-19T09:05:50.647Z,93568.00
2023-05-19T09:06:50.634Z,92608.00
2023-05-19T09:07:50.639Z,105568.00
2023-05-19T09:08:50.700Z,24832.00
2023-05-19T09:09:50.674Z,25408.00
2023-05-19T09:10:50.699Z,82688.00
2023-05-19T09:11:50.720Z,81568.00
2023-05-19T09:12:50.737Z,50784.00
2023-05-19T09:13:50.761Z,33184.00
2023-05-19T09:14:50.765Z,39744.00
2023-05-19T09:15:50.775Z,40224.00
2023-05-19T09:16:50.872Z,34496.00
2023-05-19T09:17:50.901Z,26688.00
2023-05-19T09:18:50.834Z,33536.00
2023-05-19T09:19:50.838Z,21408.00
2023-05-19T09:20:50.862Z,26048.00
2023-05-19T09:21:50.889Z,30784.00
2023-05-19T09:22:50.894Z,61056.00
2023-05-19T09:23:50.906Z,43744.00
2023-05-19T09:24:50.954Z,61632.00
2023-05-19T09:25:50.945Z,71520.00
2023-05-19T09:26:50.952Z,31904.00
2023-05-19T09:27:50.961Z,63424.00
2023-05-19T09:28:50.980Z,56448.00
2023-05-19T09:29:50.990Z,78464.00
2023-05-19T09:30:51.024Z,30336.00
2023-05-19T09:31:51.067Z,34752.00
2023-05-19T09:32:51.076Z,26112.00
2023-05-19T09:33:51.061Z,17696.00
2023-05-19T09:34:51.079Z,22112.00
2023-05-19T09:35:51.080Z,41120.00
2023-05-19T09:36:51.099Z,42464.00
2023-05-19T09:37:51.115Z,41824.00
2023-05-19T09:38:51.132Z,55616.00
2023-05-19T09:39:51.135Z,53632.00
2023-05-19T09:40:51.170Z,40896.00
2023-05-19T09:41:51.167Z,18336.00
2023-05-19T09:42:51.181Z,18592.00
2023-05-19T09:43:51.193Z,38528.00
2023-05-19T09:44:51.208Z,45184.00
2023-05-19T09:45:51.243Z,51552.00
2023-05-19T09:46:51.233Z,58240.00
2023-05-19T09:47:51.325Z,60416.00
2023-05-19T09:48:51.264Z,45088.00
2023-05-19T09:49:51.267Z,70656.00
2023-05-19T09:50:51.287Z,53312.00
2023-05-19T09:51:51.303Z,50944.00
2023-05-19T09:52:51.315Z,34944.00
2023-05-19T09:53:51.324Z,19968.00
2023-05-19T09:54:51.348Z,15300.00
2023-05-19T09:55:51.367Z,17664.00
2023-05-19T09:56:51.431Z,41536.00
2023-05-19T09:57:51.377Z,20864.00
2023-05-19T09:58:51.397Z,14020.00
2023-05-19T09:59:51.406Z,13056.00
2023-05-19T10:00:51.419Z,15612.00
2023-05-19T10:01:51.475Z,48256.00
2023-05-19T10:02:51.494Z,37152.00
2023-05-19T10:03:51.454Z,50016.00
2023-05-19T10:04:51.525Z,43968.00
2023-05-19T10:05:51.475Z,32384.00
2023-05-19T10:06:51.495Z,34880.00
2023-05-19T10:07:51.587Z,36288.00
2023-05-19T10:08:51.519Z,43296.00
2023-05-19T10:09:51.527Z,23136.00
2023-05-19T10:10:51.541Z,33888.00
2023-05-19T10:11:51.553Z,40448.00
2023-05-19T10:12:51.581Z,44192.00
2023-05-19T10:13:51.569Z,53504.00
2023-05-19T10:14:51.591Z,62144.00
2023-05-19T10:15:58.344Z,59008.00
2023-05-19T10:16:51.660Z,19328.00
2023-05-19T10:17:51.660Z,14084.00
2023-05-19T10:18:51.649Z,12564.00
2023-05-19T10:19:51.634Z,13600.00
2023-05-19T10:20:51.651Z,19040.00
2023-05-19T10:21:51.661Z,23936.00
2023-05-19T10:22:51.684Z,30976.00
2023-05-19T10:23:51.681Z,32224.00
2023-05-19T10:24:51.715Z,25952.00
2023-05-19T10:25:51.723Z,25216.00
2023-05-19T10:26:51.718Z,22080.00
2023-05-19T10:27:51.726Z,24544.00
2023-05-19T10:28:51.868Z,24032.00
2023-05-19T10:29:51.746Z,30208.00
2023-05-19T10:30:51.761Z,27584.00
2023-05-19T10:31:51.862Z,22624.00
2023-05-19T10:32:51.812Z,17472.00
2023-05-19T10:33:51.784Z,11224.00
2023-05-19T10:34:51.818Z,8968.00
2023-05-19T10:35:51.808Z,8576.00
2023-05-19T10:36:51.826Z,10520.00
2023-05-19T10:37:51.827Z,23360.00
2023-05-19T10:38:51.835Z,40800.00
2023-05-19T10:39:51.853Z,39584.00
2023-05-19T10:40:51.868Z,38496.00
2023-05-19T10:41:51.861Z,31904.00
2023-05-19T10:42:51.873Z,28224.00
2023-05-19T10:43:51.876Z,17568.00
2023-05-19T10:44:51.922Z,18144.00
2023-05-19T10:45:51.902Z,21056.00
2023-05-19T10:46:53.433Z,28768.00
2023-05-19T10:47:52.003Z,28736.00
2023-05-19T10:48:51.937Z,26816.00
2023-05-19T10:49:51.928Z,27296.00
2023-05-19T10:50:51.940Z,21568.00
2023-05-19T10:51:51.949Z,12268.00
2023-05-19T10:52:51.961Z,8660.00
2023-05-19T10:53:51.969Z,7624.00
2023-05-19T10:54:51.976Z,7684.00
2023-05-19T10:55:51.981Z,9000.00
2023-05-19T10:56:51.991Z,10408.00
2023-05-19T10:57:51.996Z,11488.00
2023-05-19T10:58:52.014Z,15040.00
2023-05-19T10:59:52.027Z,23456.00
2023-05-19T11:00:52.039Z,38272.00
2023-05-19T11:01:52.048Z,37440.00
2023-05-19T11:02:52.120Z,37152.00
2023-05-19T11:03:52.124Z,37600.00
2023-05-19T11:04:52.256Z,31232.00
2023-05-19T11:05:52.062Z,30560.00
2023-05-19T11:06:52.063Z,26976.00
2023-05-19T11:07:52.068Z,25792.00
2023-05-19T11:08:52.083Z,23520.00
2023-05-19T11:09:52.108Z,17664.00
2023-05-19T11:10:52.097Z,15264.00
2023-05-19T11:11:52.091Z,16328.00
2023-05-19T11:12:52.269Z,25312.00
2023-05-19T11:13:52.116Z,27904.00
2023-05-19T11:14:52.134Z,31936.00
2023-05-19T11:15:52.135Z,29856.00
2023-05-19T11:16:52.234Z,27392.00
2023-05-19T11:17:52.208Z,20544.00
2023-05-19T11:18:52.177Z,21568.00
2023-05-19T11:19:52.166Z,26464.00
2023-05-19T11:20:52.215Z,24896.00
2023-05-19T11:21:52.191Z,19456.00
2023-05-19T11:22:52.184Z,17536.00
2023-05-19T11:23:52.240Z,21632.00
2023-05-19T11:24:52.209Z,21376.00
2023-05-19T11:25:52.207Z,25600.00
2023-05-19T11:26:52.211Z,26208.00
2023-05-19T11:27:52.224Z,24416.00
2023-05-19T11:28:52.232Z,21568.00
2023-05-19T11:29:52.232Z,18400.00
2023-05-19T11:30:52.587Z,17120.00
2023-05-19T11:31:52.304Z,15848.00
2023-05-19T11:32:52.363Z,16408.00
2023-05-19T11:33:52.269Z,19456.00
2023-05-19T11:34:52.280Z,19488.00
2023-05-19T11:35:52.285Z,18336.00
2023-05-19T11:36:52.304Z,17600.00
2023-05-19T11:37:52.324Z,17440.00
2023-05-19T11:38:52.318Z,18976.00
2023-05-19T11:39:52.354Z,19104.00
2023-05-19T11:40:52.327Z,21152.00
2023-05-19T11:41:52.331Z,20576.00
2023-05-19T11:42:52.344Z,21312.00
2023-05-19T11:43:52.352Z,20128.00
2023-05-19T11:44:52.356Z,19872.00
2023-05-19T11:45:52.408Z,20768.00
2023-05-19T11:46:52.418Z,20448.00
2023-05-19T11:48:52.427Z,21984.00
2023-05-19T11:49:52.397Z,21024.00
2023-05-19T11:50:52.435Z,18464.00
2023-05-19T11:51:52.414Z,21472.00
2023-05-19T11:52:52.429Z,16736.00
2023-05-19T11:53:52.464Z,15252.00
2023-05-19T11:54:52.452Z,14088.00
2023-05-19T11:55:52.763Z,14236.00
2023-05-19T11:56:52.466Z,19104.00
2023-05-19T11:58:02.865Z,18368.00
2023-05-19T11:58:52.466Z,19648.00
2023-05-19T11:59:52.475Z,21440.00
2023-05-19T12:00:52.499Z,20000.00
2023-05-19T12:01:52.490Z,19520.00
2023-05-19T12:02:52.660Z,17952.00
2023-05-19T12:03:53.054Z,17408.00
2023-05-19T12:04:52.622Z,15144.00
2023-05-19T12:05:52.608Z,14472.00
2023-05-19T12:06:52.525Z,16768.00
2023-05-19T12:07:52.549Z,15060.00
2023-05-19T12:08:52.546Z,12816.00
2023-05-19T12:09:52.548Z,12380.00
2023-05-19T12:10:52.559Z,11268.00
2023-05-19T12:11:52.561Z,10076.00
2023-05-19T12:12:52.572Z,9240.00
2023-05-19T12:13:52.627Z,8172.00
2023-05-19T12:14:52.630Z,7100.00
2023-05-19T12:15:52.708Z,6928.00
2023-05-19T12:16:52.677Z,7564.00
2023-05-19T12:17:52.658Z,8472.00
2023-05-19T12:18:52.697Z,8228.00